Waizenkirchen, Austria
Current Conditions -  °F | °C
As of 11:20 PM on Thursday 23 Oct 2014 (Local Time) from LOWL Reporting Station
Broken Clouds Broken Clouds  
Wind Chill: 43°   Ceiling: 3800
Heat Index: 48°   Visibility: 6mi
Dew Point: 45°   Wind: 12mph
Humidity: 87%   Direction: 260°W
Pressure: 30.18"   Gusts: NA
Location:  48.33°N, 13.86°E
Report Text: LOWL 232120Z 26010KT 9999 SCT034 BKN038 09/07 Q1022 NOSIG
Loading
Personal Weather Stations






























Interactive Weather Map
Tropical Storm Tracking
New forecast layout! Learn more

10-Day Weather Forecast

Advertisements
Track Severe Weather on mobile